Time;durP1;ratioP1;P1;durP2;ratioP2;P2;SDS_P1;SDS_P2;PMS_P1;PMS_P2;Temp;Humidity;BMP_temperature;BMP_pressure;BME280_temperature;BME280_humidity;BME280_pressure;Samples;Min_cycle;Max_cycle;Signal;HPM_P1;HPM_P2
2022/12/30 00:00:42;;;;;;;17.67;7.18;;;;;;;2.57;100.00;100314.38;6365835;27;20043;-79
2022/12/30 00:03:43;;;;;;;11.63;6.68;;;;;;;2.46;100.00;100306.03;6348247;27;20121;-79
2022/12/30 00:06:44;;;;;;;10.20;6.50;;;;;;;2.48;100.00;100312.00;6365523;27;20054;-79
2022/12/30 00:09:45;;;;;;;9.88;6.85;;;;;;;2.52;100.00;100308.47;6354284;27;20490;-78
2022/12/30 00:33:37;;;;;;;16.20;7.88;;;;;;;2.54;100.00;100316.16;6367644;28;20039;-79
2022/12/30 00:36:38;;;;;;;16.35;8.40;;;;;;;2.53;100.00;100328.19;6346607;28;20040;-79
2022/12/30 00:39:39;;;;;;;10.38;6.78;;;;;;;2.48;100.00;100321.44;6364686;27;20402;-79
2022/12/30 00:45:59;;;;;;;20.05;9.45;;;;;;;2.47;100.00;100333.50;6369705;27;20054;-79
2022/12/30 00:58:57;;;;;;;16.30;8.00;;;;;;;2.22;100.00;100320.31;6372076;28;20403;-77
2022/12/30 01:01:58;;;;;;;17.70;9.05;;;;;;;2.22;100.00;100320.31;6372358;27;20118;-76
2022/12/30 01:04:59;;;;;;;14.38;7.72;;;;;;;2.28;100.00;100312.44;6353860;28;20047;-76
2022/12/30 01:08:02;;;;;;;10.88;7.25;;;;;;;2.31;100.00;100307.25;6371975;28;20039;-79
2022/12/30 01:11:09;;;;;;;12.23;7.10;;;;;;;2.37;100.00;100309.66;6348756;27;20459;-79
2022/12/30 01:14:09;;;;;;;16.33;7.97;;;;;;;2.48;100.00;100318.88;6372065;27;20042;-76
2022/12/30 01:17:14;;;;;;;13.98;6.68;;;;;;;2.48;100.00;100313.72;6363313;27;20039;-76
2022/12/30 01:20:17;;;;;;;10.65;6.50;;;;;;;2.41;100.00;100316.44;6374926;27;20054;-76
2022/12/30 01:23:17;;;;;;;9.32;5.45;;;;;;;2.50;100.00;100314.53;6376998;27;20035;-76
2022/12/30 01:26:18;;;;;;;10.63;6.05;;;;;;;2.55;100.00;100310.09;6373250;27;20502;-76
2022/12/30 01:29:29;;;;;;;8.82;5.50;;;;;;;2.61;100.00;100307.38;6375305;27;20461;-79
2022/12/30 01:32:30;;;;;;;10.70;5.05;;;;;;;2.59;100.00;100315.16;6376474;27;20039;-79
2022/12/30 01:35:32;;;;;;;8.23;5.25;;;;;;;2.69;100.00;100317.50;6351791;28;20497;-78
2022/12/30 01:38:33;;;;;;;10.52;6.00;;;;;;;2.73;100.00;100314.81;6367025;27;20039;-79
2022/12/30 01:41:33;;;;;;;10.68;5.20;;;;;;;2.74;100.00;100290.75;6376062;27;20086;-78
2022/12/30 01:45:00;;;;;;;9.07;5.63;;;;;;;2.80;100.00;100311.22;6357181;27;20040;-78
2022/12/30 01:48:21;;;;;;;8.80;5.05;;;;;;;2.93;100.00;100313.50;6367999;27;20050;-78
2022/12/30 01:51:28;;;;;;;8.52;4.78;;;;;;;2.95;100.00;100307.41;6375235;27;20046;-77
2022/12/30 01:54:29;;;;;;;8.07;5.18;;;;;;;3.03;100.00;100307.22;6369570;27;20096;-77
2022/12/30 01:57:33;;;;;;;10.50;4.05;;;;;;;3.06;100.00;100311.44;6375168;27;20448;-76
2022/12/30 02:00:35;;;;;;;9.32;4.90;;;;;;;3.13;100.00;100297.47;6361238;27;20050;-79
2022/12/30 02:03:44;;;;;;;8.93;5.15;;;;;;;3.19;100.00;100299.91;6371607;27;20043;-79
2022/12/30 02:07:08;;;;;;;10.75;5.40;;;;;;;3.23;100.00;100307.53;6375599;27;20044;-79
2022/12/30 02:10:15;;;;;;;7.13;3.05;;;;;;;3.22;100.00;100300.66;6371868;27;20526;-79
2022/12/30 02:13:18;;;;;;;6.20;4.00;;;;;;;3.27;100.00;100297.13;6364568;27;20501;-78
2022/12/30 02:16:33;;;;;;;8.48;4.57;;;;;;;3.31;100.00;100294.41;6369516;27;20035;-78
2022/12/30 02:20:05;;;;;;;4.45;3.13;;;;;;;3.27;100.00;100294.53;6367193;27;20648;-76
2022/12/30 02:23:28;;;;;;;8.82;4.43;;;;;;;3.38;100.00;100283.06;6349706;28;20039;-78
2022/12/30 02:27:02;;;;;;;9.48;4.53;;;;;;;3.33;100.00;100292.63;6349582;28;20044;-76
2022/12/30 02:30:09;;;;;;;8.38;4.95;;;;;;;3.36;100.00;100296.88;6349962;27;20463;-78
2022/12/30 02:33:33;;;;;;;11.10;5.63;;;;;;;3.45;100.00;100295.78;6353605;27;20039;-79
2022/12/30 02:36:52;;;;;;;6.53;4.47;;;;;;;3.36;100.00;100290.00;6357590;27;20066;-76
2022/12/30 02:40:13;;;;;;;8.25;4.90;;;;;;;3.35;100.00;100288.28;6365962;27;20122;-76
2022/12/30 02:46:43;;;;;;;14.47;6.07;;;;;;;3.25;100.00;100263.63;6349529;28;20047;-79
2022/12/30 02:52:14;;;;;;;11.57;5.55;;;;;;;3.18;100.00;100272.44;6348092;28;20509;-77
2022/12/30 02:53:09;;;;;;;18.70;4.38;;;;;;;3.16;100.00;100281.94;6349342;28;20462;-79
2022/12/30 02:56:12;;;;;;;16.80;5.65;;;;;;;3.09;100.00;100267.50;6347933;28;20085;-79
2022/12/30 03:06:39;;;;;;;11.93;4.30;;;;;;;3.23;100.00;100274.00;6348914;28;20050;-79
2022/12/30 03:13:39;;;;;;;9.00;4.10;;;;;;;3.23;100.00;100270.56;6373298;27;20043;-79
2022/12/30 03:16:45;;;;;;;4.97;3.15;;;;;;;3.28;100.00;100255.00;6371899;27;20482;-79
2022/12/30 03:19:54;;;;;;;4.15;2.90;;;;;;;3.36;100.00;100253.88;6373022;27;20039;-77
2022/12/30 03:29:57;;;;;;;7.03;3.65;;;;;;;3.39;100.00;100240.03;6371677;27;20050;-77
2022/12/30 03:32:58;;;;;;;8.73;4.15;;;;;;;3.35;100.00;100243.59;6367237;27;20465;-76
2022/12/30 03:36:23;;;;;;;5.40;4.03;;;;;;;3.39;100.00;100242.63;6372898;27;20096;-76
2022/12/30 03:39:31;;;;;;;11.63;4.63;;;;;;;3.45;100.00;100251.94;6372997;27;20043;-76
2022/12/30 03:42:36;;;;;;;9.13;3.80;;;;;;;3.40;100.00;100259.81;6372341;27;20118;-77
2022/12/30 03:45:37;;;;;;;8.57;4.97;;;;;;;3.39;100.00;100252.94;6365162;27;20047;-79
2022/12/30 03:48:43;;;;;;;14.05;4.13;;;;;;;3.34;100.00;100247.09;6368775;27;20042;-79
2022/12/30 03:51:46;;;;;;;6.57;3.85;;;;;;;3.31;100.00;100262.63;6371010;27;20047;-79
2022/12/30 03:54:48;;;;;;;9.60;4.07;;;;;;;3.37;100.00;100259.88;6367693;27;20119;-78
2022/12/30 03:57:49;;;;;;;;;;;;;;;3.40;100.00;100268.38;6353950;27;20039;-77
2022/12/30 04:00:53;;;;;;;2.20;1.92;;;;;;;3.40;100.00;100270.97;6360130;27;20401;-77
2022/12/30 04:03:54;;;;;;;14.00;5.32;;;;;;;3.38;100.00;100269.31;6360681;27;20067;-77
2022/12/30 04:06:54;;;;;;;12.02;3.47;;;;;;;3.37;100.00;100263.28;6361796;27;20031;-77
2022/12/30 04:09:55;;;;;;;9.23;4.32;;;;;;;3.48;100.00;100278.50;6372087;27;20051;-77
2022/12/30 04:12:56;;;;;;;7.53;3.55;;;;;;;3.51;100.00;100273.22;6365242;27;20039;-77
2022/12/30 04:16:04;;;;;;;6.72;4.15;;;;;;;3.58;100.00;100261.84;6372188;27;20186;-77
2022/12/30 04:19:05;;;;;;;7.28;3.67;;;;;;;3.63;100.00;100272.88;6370847;27;20054;-79
2022/12/30 04:22:06;;;;;;;6.63;3.65;;;;;;;3.65;100.00;100265.09;6355641;27;20046;-79
2022/12/30 04:25:07;;;;;;;6.32;3.47;;;;;;;3.77;100.00;100269.06;6353541;27;20047;-79
2022/12/30 04:28:08;;;;;;;7.32;3.45;;;;;;;3.77;100.00;100269.06;6367093;27;20391;-77
2022/12/30 04:31:09;;;;;;;6.47;3.50;;;;;;;3.75;100.00;100265.69;6365735;27;20059;-78
2022/12/30 04:34:12;;;;;;;4.90;3.20;;;;;;;3.66;100.00;100251.28;6359907;27;20046;-79
2022/12/30 04:37:13;;;;;;;16.05;4.00;;;;;;;3.70;100.00;100252.91;6345866;28;20044;-77
2022/12/30 04:40:14;;;;;;;10.60;4.70;;;;;;;3.76;100.00;100251.88;6363288;28;20364;-77
2022/12/30 04:43:15;;;;;;;4.53;3.25;;;;;;;3.70;100.00;100255.47;6365500;27;20046;-79
2022/12/30 04:46:16;;;;;;;4.40;3.00;;;;;;;3.69;100.00;100261.53;6372093;27;20466;-78
2022/12/30 04:49:16;;;;;;;5.57;2.67;;;;;;;3.69;100.00;100258.97;6375480;27;20374;-77
2022/12/30 04:52:17;;;;;;;8.77;3.63;;;;;;;3.61;100.00;100266.91;6370380;27;20123;-78
2022/12/30 04:55:18;;;;;;;11.57;4.03;;;;;;;3.78;100.00;100286.22;6377690;27;20036;-77
2022/12/30 04:58:20;;;;;;;8.38;5.50;;;;;;;3.86;100.00;100284.28;6377652;27;20068;-78
2022/12/30 05:01:21;;;;;;;8.10;4.63;;;;;;;3.88;100.00;100289.41;6377390;27;20408;-78
2022/12/30 05:04:22;;;;;;;5.13;3.42;;;;;;;3.92;100.00;100275.50;6376264;27;20077;-79
2022/12/30 05:07:22;;;;;;;14.65;6.75;;;;;;;3.98;100.00;100283.91;6376312;27;20035;-77
2022/12/30 05:10:23;;;;;;;12.00;5.43;;;;;;;3.99;100.00;100295.91;6375991;27;20050;-77
2022/12/30 05:13:24;;;;;;;5.43;3.95;;;;;;;4.08;100.00;100297.38;6361378;27;20375;-77
2022/12/30 05:16:25;;;;;;;7.25;4.07;;;;;;;4.03;100.00;100294.91;6376547;27;20039;-78
2022/12/30 05:19:26;;;;;;;5.20;3.75;;;;;;;3.95;100.00;100283.97;6373446;27;20478;-79
2022/12/30 05:22:26;;;;;;;3.88;2.45;;;;;;;3.93;100.00;100290.09;6365812;27;20047;-77
2022/12/30 05:28:48;;;;;;;4.85;3.63;;;;;;;3.98;100.00;100285.66;6366935;27;20031;-79
2022/12/30 05:31:51;;;;;;;5.07;3.17;;;;;;;3.99;100.00;100283.00;6365958;27;20038;-79
2022/12/30 05:34:52;;;;;;;4.60;3.50;;;;;;;3.98;100.00;100290.81;6371740;27;20031;-79
2022/12/30 05:37:53;;;;;;;9.98;5.57;;;;;;;3.90;100.00;100274.72;6373599;27;20035;-77
2022/12/30 05:40:54;;;;;;;11.73;7.10;;;;;;;4.00;100.00;100287.28;6365083;27;20059;-77
2022/12/30 05:43:54;;;;;;;13.23;7.00;;;;;;;3.98;100.00;100286.47;6350915;27;20028;-77
2022/12/30 05:46:55;;;;;;;5.82;4.28;;;;;;;4.06;100.00;100280.22;6366526;27;20402;-77
2022/12/30 05:49:56;;;;;;;5.47;3.60;;;;;;;4.03;100.00;100283.75;6367706;27;20067;-79
2022/12/30 05:52:57;;;;;;;7.10;3.83;;;;;;;4.09;100.00;100286.16;6368064;27;20051;-79
2022/12/30 05:56:02;;;;;;;6.45;3.55;;;;;;;4.21;100.00;100287.53;6375013;27;20049;-79
2022/12/30 05:59:03;;;;;;;7.85;3.67;;;;;;;4.23;100.00;100278.81;6374719;27;20035;-77
2022/12/30 06:02:04;;;;;;;8.07;4.03;;;;;;;4.19;100.00;100282.41;6365899;27;20096;-77
2022/12/30 06:05:05;;;;;;;6.53;4.30;;;;;;;4.32;100.00;100282.00;6371854;27;20043;-77
2022/12/30 06:08:06;;;;;;;7.40;5.25;;;;;;;4.35;100.00;100275.03;6374765;27;20047;-79
2022/12/30 06:11:07;;;;;;;7.47;4.78;;;;;;;4.28;100.00;100278.66;6356189;27;20529;-79
2022/12/30 06:14:09;;;;;;;12.13;6.13;;;;;;;4.35;100.00;100280.19;6361539;27;20048;-77
2022/12/30 06:17:10;;;;;;;9.48;4.10;;;;;;;4.22;100.00;100276.28;6349952;28;20040;-79
2022/12/30 06:20:11;;;;;;;12.02;4.63;;;;;;;4.28;100.00;100273.50;6367302;27;20047;-79
2022/12/30 06:23:12;;;;;;;5.90;3.67;;;;;;;4.33;100.00;100270.81;6353705;27;20068;-79
2022/12/30 06:26:13;;;;;;;9.00;5.55;;;;;;;4.49;100.00;100295.25;6374216;27;20039;-77
2022/12/30 06:29:14;;;;;;;9.18;5.60;;;;;;;4.55;100.00;100296.78;6371481;27;20093;-79
2022/12/30 06:32:15;;;;;;;12.38;5.93;;;;;;;4.70;100.00;100296.28;6357123;27;20122;-77
2022/12/30 06:35:15;;;;;;;7.72;4.18;;;;;;;4.76;100.00;100303.84;6371150;27;20041;-77
2022/12/30 06:38:16;;;;;;;9.45;5.20;;;;;;;4.75;100.00;100302.16;6374077;27;20035;-77
2022/12/30 06:41:19;;;;;;;11.00;6.15;;;;;;;4.82;100.00;100313.16;6374895;27;20103;-79
2022/12/30 06:44:20;;;;;;;8.68;4.85;;;;;;;4.97;100.00;100325.56;6374980;27;20080;-81
2022/12/30 06:47:21;;;;;;;12.43;4.78;;;;;;;4.96;100.00;100312.66;6344490;27;20043;-80
2022/12/30 06:50:22;;;;;;;7.45;5.13;;;;;;;5.03;100.00;100322.75;6348748;27;20039;-78
2022/12/30 06:53:23;;;;;;;8.77;5.60;;;;;;;5.06;100.00;100314.03;6331166;28;20058;-80
2022/12/30 06:56:23;;;;;;;8.63;4.22;;;;;;;5.14;100.00;100326.72;6370526;27;20088;-78
2022/12/30 06:59:24;;;;;;;7.72;4.50;;;;;;;5.19;100.00;100320.50;6372204;27;20501;-78
2022/12/30 07:02:28;;;;;;;15.03;6.87;;;;;;;5.32;100.00;100340.78;6368959;27;20047;-80
2022/12/30 07:05:34;;;;;;;10.50;4.45;;;;;;;5.30;100.00;100330.47;6372681;27;20043;-79
2022/12/30 07:08:35;;;;;;;10.07;3.90;;;;;;;5.37;100.00;100321.59;6369101;27;20057;-78
2022/12/30 07:11:36;;;;;;;8.05;4.10;;;;;;;5.41;100.00;100335.28;6368278;27;20039;-78
2022/12/30 07:14:37;;;;;;;8.38;4.95;;;;;;;5.57;100.00;100336.41;6349183;27;20205;-80
2022/12/30 07:17:38;;;;;;;7.80;4.72;;;;;;;5.57;100.00;100336.41;6355003;27;20044;-79
2022/12/30 07:20:39;;;;;;;15.88;5.18;;;;;;;5.57;100.00;100330.41;6372323;27;20135;-78
2022/12/30 07:23:42;;;;;;;13.15;4.82;;;;;;;5.62;100.00;100349.19;6372813;27;20066;-78
2022/12/30 07:26:44;;;;;;;6.97;4.00;;;;;;;5.64;100.00;100350.84;6347262;28;20055;-78
2022/12/30 07:29:45;;;;;;;10.10;5.00;;;;;;;5.71;100.00;100348.88;6347083;28;20042;-78
2022/12/30 07:32:46;;;;;;;7.38;3.80;;;;;;;5.74;100.00;100338.38;6348460;28;20040;-78
2022/12/30 07:35:47;;;;;;;9.40;5.43;;;;;;;5.86;100.00;100356.06;6355168;27;20105;-78
2022/12/30 07:38:48;;;;;;;12.45;6.30;;;;;;;5.85;100.00;100350.97;6345848;28;20044;-79
2022/12/30 07:41:52;;;;;;;8.75;5.35;;;;;;;5.93;100.00;100353.25;6358772;27;20075;-78
2022/12/30 07:44:54;;;;;;;17.85;6.65;;;;;;;5.94;100.00;100363.56;6363173;27;20043;-79
2022/12/30 07:48:00;;;;;;;20.65;9.27;;;;;;;6.01;100.00;100367.66;6371102;27;20549;-79
2022/12/30 07:51:13;;;;;;;12.55;5.88;;;;;;;6.03;100.00;100367.59;6349969;27;20136;-78
2022/12/30 07:54:13;;;;;;;9.25;5.53;;;;;;;6.10;100.00;100358.69;6345360;27;20040;-78
2022/12/30 07:57:14;;;;;;;7.85;4.10;;;;;;;6.16;100.00;100366.25;6345377;28;20116;-77
2022/12/30 08:00:16;;;;;;;7.03;4.03;;;;;;;6.18;100.00;100379.97;6346527;28;20452;-78
2022/12/30 08:03:17;;;;;;;6.73;4.20;;;;;;;6.20;100.00;100369.56;6328182;28;20047;-79
2022/12/30 08:06:18;;;;;;;6.93;4.70;;;;;;;6.17;100.00;100375.69;6344838;28;20629;-78
2022/12/30 08:09:19;;;;;;;6.60;3.85;;;;;;;6.25;100.00;100393.53;6345045;28;20047;-79
2022/12/30 08:12:22;;;;;;;5.82;4.20;;;;;;;6.30;100.00;100401.13;6344817;28;20047;-79
2022/12/30 08:15:23;;;;;;;6.28;3.67;;;;;;;6.32;100.00;100388.97;6346335;28;20043;-79
2022/12/30 08:18:24;;;;;;;9.18;3.22;;;;;;;6.32;100.00;100388.97;6344698;28;20122;-78
2022/12/30 08:21:25;;;;;;;8.23;3.88;;;;;;;6.45;100.00;100390.19;6345561;28;20511;-78
2022/12/30 08:24:28;;;;;;;8.35;3.72;;;;;;;6.57;100.00;100389.72;6345785;28;20036;-79
2022/12/30 08:27:33;;;;;;;7.30;4.50;;;;;;;6.56;100.00;100395.81;6350602;27;20035;-79
2022/12/30 08:30:39;;;;;;;10.50;6.07;;;;;;;6.59;100.00;100400.88;6366035;27;20042;-78
2022/12/30 08:33:40;;;;;;;5.65;4.35;;;;;;;6.58;100.00;100401.78;6345748;28;20043;-79
2022/12/30 08:36:41;;;;;;;11.45;4.88;;;;;;;6.61;100.00;100404.25;6355559;28;20050;-78
2022/12/30 08:39:42;;;;;;;11.93;5.60;;;;;;;6.72;100.00;100411.63;6371256;27;20039;-78
2022/12/30 08:42:44;;;;;;;7.35;4.75;;;;;;;6.71;100.00;100409.91;6358902;28;20491;-79
2022/12/30 08:45:55;;;;;;;6.95;3.88;;;;;;;6.70;100.00;100408.25;6361754;28;20040;-78
2022/12/30 08:48:56;;;;;;;7.80;4.45;;;;;;;6.75;100.00;100406.28;6345148;28;20478;-79
2022/12/30 08:51:57;;;;;;;16.23;3.47;;;;;;;6.64;100.00;100408.47;6353651;28;20037;-79
2022/12/30 08:54:58;;;;;;;4.95;3.30;;;;;;;6.67;100.00;100416.13;6370319;27;20043;-79
2022/12/30 08:57:59;;;;;;;6.38;3.63;;;;;;;6.68;100.00;100420.41;6371489;27;20046;-78
2022/12/30 09:01:07;;;;;;;5.57;3.50;;;;;;;6.71;100.00;100419.44;6372217;27;20043;-79
2022/12/30 09:04:09;;;;;;;5.20;3.25;;;;;;;6.74;100.00;100427.97;6370624;27;20051;-80
2022/12/30 09:07:10;;;;;;;7.05;4.30;;;;;;;6.75;100.00;100423.59;6370841;27;20095;-79
2022/12/30 09:10:12;;;;;;;8.45;3.97;;;;;;;6.78;100.00;100421.75;6372171;28;20051;-80
2022/12/30 09:13:15;;;;;;;8.63;3.47;;;;;;;6.76;100.00;100420.97;6353802;28;20061;-80
2022/12/30 09:16:19;;;;;;;8.30;4.10;;;;;;;6.78;100.00;100420.91;6371663;27;20039;-80
2022/12/30 09:19:21;;;;;;;4.20;2.97;;;;;;;6.75;100.00;100421.84;6370893;28;20504;-80
2022/12/30 09:22:23;;;;;;;5.45;3.47;;;;;;;6.71;100.00;100411.66;6371050;28;20038;-80
2022/12/30 09:25:26;;;;;;;5.57;3.65;;;;;;;6.77;100.00;100419.19;6353761;28;20047;-79
2022/12/30 09:28:27;;;;;;;3.05;2.42;;;;;;;6.71;100.00;100420.28;6358480;27;20036;-77
2022/12/30 09:31:28;;;;;;;5.63;3.35;;;;;;;6.82;100.00;100412.94;6370964;28;20071;-78
2022/12/30 09:34:29;;;;;;;8.53;3.97;;;;;;;6.77;100.00;100408.84;6374784;27;20039;-77
2022/12/30 09:37:32;;;;;;;5.90;3.08;;;;;;;6.89;100.00;100400.56;6358212;27;20409;-77
2022/12/30 09:40:48;;;;;;;12.63;4.15;;;;;;;6.90;100.00;100404.00;6376614;27;20059;-77
2022/12/30 09:44:07;;;;;;;6.82;3.15;;;;;;;7.00;100.00;100405.31;6375456;27;20421;-77
2022/12/30 09:47:17;;;;;;;6.07;3.15;;;;;;;7.07;100.00;100397.22;6358160;27;20050;-78
2022/12/30 09:50:27;;;;;;;8.20;3.67;;;;;;;7.07;100.00;100392.03;6376441;27;20051;-77
2022/12/30 09:54:06;;;;;;;4.78;3.00;;;;;;;7.09;100.00;100386.78;6376308;27;20039;-79
2022/12/30 10:00:33;;;;;;;6.40;3.50;;;;;;;7.19;100.00;100389.84;6376037;27;20074;-80
2022/12/30 10:03:34;;;;;;;5.53;3.53;;;;;;;7.15;100.00;100380.50;6367165;27;20120;-77
2022/12/30 10:06:48;;;;;;;4.28;3.05;;;;;;;7.20;100.00;100386.34;6349417;28;20040;-77
2022/12/30 10:10:07;;;;;;;5.28;2.50;;;;;;;7.22;100.00;100384.53;6361337;27;20159;-77
2022/12/30 10:13:17;;;;;;;5.20;3.08;;;;;;;7.24;100.00;100377.50;6357258;27;20067;-78
2022/12/30 10:16:40;;;;;;;6.82;2.85;;;;;;;7.28;100.00;100383.44;6374402;27;20042;-78
2022/12/30 10:19:59;;;;;;;7.70;3.67;;;;;;;7.29;100.00;100385.09;6356731;27;20055;-83
2022/12/30 10:23:12;;;;;;;8.93;3.65;;;;;;;7.26;100.00;100381.72;6374535;27;20053;-78
2022/12/30 10:26:22;;;;;;;4.97;3.22;;;;;;;7.37;100.00;100381.28;6355621;27;20055;-80
2022/12/30 10:29:35;;;;;;;7.13;4.22;;;;;;;7.34;100.00;100376.22;6375288;27;20050;-77
2022/12/30 10:32:36;;;;;;;4.40;2.70;;;;;;;7.33;100.00;100368.50;6373907;27;20039;-77
2022/12/30 10:35:39;;;;;;;10.98;5.25;;;;;;;7.47;100.00;100377.41;6374447;27;20035;-77
2022/12/30 10:38:40;;;;;;;7.50;4.25;;;;;;;7.41;100.00;100362.09;6374901;27;20067;-77
2022/12/30 10:41:53;;;;;;;6.55;3.47;;;;;;;7.45;100.00;100374.03;6374812;27;20057;-78
2022/12/30 10:45:03;;;;;;;;;;;;;;;7.52;100.00;100372.00;6367500;27;20036;-78
2022/12/30 10:48:40;;;;;;;3.67;2.13;;;;;;;7.47;100.00;100371.34;6330875;28;20438;-78
2022/12/30 10:51:41;;;;;;;6.35;4.22;;;;;;;7.41;100.00;100356.03;6349312;28;20040;-81
2022/12/30 10:54:44;;;;;;;6.45;2.95;;;;;;;7.65;100.00;100361.91;6365127;27;20043;-78
2022/12/30 10:57:47;;;;;;;5.18;3.67;;;;;;;7.62;100.00;100355.09;6347792;28;20414;-80
2022/12/30 11:00:48;;;;;;;5.50;3.20;;;;;;;7.68;100.00;100354.00;6347905;28;20251;-78
2022/12/30 11:03:56;;;;;;;6.20;3.88;;;;;;;7.71;100.00;100353.84;6352795;27;20505;-81
2022/12/30 11:07:02;;;;;;;3.78;3.10;;;;;;;7.76;100.00;100348.44;6373357;27;20045;-78
2022/12/30 11:10:21;;;;;;;6.55;3.38;;;;;;;7.77;100.00;100344.94;6374332;27;20118;-78
2022/12/30 11:16:41;;;;;;;5.18;3.63;;;;;;;7.84;100.00;100355.00;6371847;27;20433;-80
2022/12/30 11:19:43;;;;;;;8.55;4.15;;;;;;;7.81;100.00;100354.28;6371252;27;20043;-78
2022/12/30 11:22:51;;;;;;;6.47;3.80;;;;;;;7.86;100.00;100358.38;6373985;27;20100;-78
2022/12/30 11:25:53;;;;;;;8.73;4.60;;;;;;;7.97;100.00;100362.22;6371560;27;20042;-78
2022/12/30 11:29:07;;;;;;;7.15;3.78;;;;;;;7.97;100.00;100355.28;6371405;27;20091;-79
2022/12/30 11:32:10;;;;;;;9.55;3.95;;;;;;;7.95;100.00;100357.13;6370992;27;20054;-77
2022/12/30 11:35:33;;;;;;;6.40;4.50;;;;;;;7.87;100.00;100357.44;6372150;27;20057;-78
2022/12/30 11:38:38;;;;;;;8.43;3.67;;;;;;;8.03;100.00;100349.81;6371907;27;20074;-79
2022/12/30 11:41:51;;;;;;;7.00;3.80;;;;;;;7.97;100.00;100344.91;6371618;27;20266;-77
2022/12/30 11:45:16;;;;;;;6.38;3.65;;;;;;;8.01;100.00;100338.66;6370334;27;20409;-80
2022/12/30 11:48:43;;;;;;;8.63;4.63;;;;;;;8.00;100.00;100344.75;6370612;27;20039;-77
2022/12/30 11:51:50;;;;;;;8.20;4.40;;;;;;;8.09;100.00;100361.66;6370287;27;20039;-78
2022/12/30 11:54:57;;;;;;;8.45;4.57;;;;;;;8.14;100.00;100361.47;6370153;27;20136;-78
2022/12/30 11:58:00;;;;;;;12.75;4.93;;;;;;;8.15;100.00;100368.34;6369660;27;20114;-79
2022/12/30 12:01:06;;;;;;;9.43;4.90;;;;;;;8.17;100.00;100361.31;6370371;27;20039;-79
2022/12/30 12:04:06;;;;;;;6.75;3.67;;;;;;;8.09;100.00;100353.88;6351323;27;20035;-79
2022/12/30 12:07:16;;;;;;;4.88;3.40;;;;;;;8.20;100.00;100354.22;6362194;27;20047;-78
2022/12/30 12:10:24;;;;;;;8.98;4.88;;;;;;;8.24;100.00;100353.16;6364907;27;20444;-78
2022/12/30 12:13:51;;;;;;;7.70;4.45;;;;;;;8.46;100.00;100353.06;6366751;27;20490;-78
2022/12/30 12:17:11;;;;;;;10.23;4.50;;;;;;;8.48;100.00;100360.75;6350388;27;20053;-78
2022/12/30 12:20:38;;;;;;;7.82;4.90;;;;;;;8.43;100.00;100360.97;6360389;27;20529;-78
2022/12/30 12:23:54;;;;;;;6.75;3.97;;;;;;;8.34;100.00;100361.41;6348495;27;20058;-79
2022/12/30 12:27:02;;;;;;;8.68;4.50;;;;;;;8.40;100.00;100355.03;6326978;28;20059;-77
2022/12/30 12:30:03;;;;;;;5.93;3.35;;;;;;;8.35;100.00;100367.44;6344500;28;20046;-78
2022/12/30 12:33:19;;;;;;;6.68;4.22;;;;;;;8.34;100.00;100361.41;6344394;28;20533;-78
2022/12/30 12:36:49;;;;;;;9.45;4.80;;;;;;;8.34;100.00;100360.53;6345322;28;20100;-78
2022/12/30 12:40:12;;;;;;;8.65;4.32;;;;;;;8.61;100.00;100366.25;6368346;28;20039;-79
2022/12/30 12:43:26;;;;;;;;;;;;;;;8.59;100.00;100360.25;6370989;27;20047;-78
2022/12/30 12:46:32;;;;;;;5.82;3.97;;;;;;;8.44;100.00;100364.41;6370724;27;20327;-78
2022/12/30 12:49:55;;;;;;;5.55;3.95;;;;;;;8.42;100.00;100364.50;6369667;28;20046;-78
2022/12/30 12:52:56;;;;;;;5.10;3.63;;;;;;;8.48;100.00;100371.16;6369043;28;20076;-78
2022/12/30 12:56:03;;;;;;;7.57;3.90;;;;;;;8.45;100.00;100374.75;6369276;28;20439;-78
2022/12/30 12:59:22;;;;;;;7.68;3.95;;;;;;;8.36;100.00;100384.69;6352023;27;20051;-78
2022/12/30 13:02:43;;;;;;;7.45;3.90;;;;;;;8.40;100.00;100371.50;6369062;27;20547;-78
2022/12/30 13:05:47;;;;;;;9.60;4.88;;;;;;;8.36;100.00;100380.38;6369337;28;20070;-78
2022/12/30 13:09:02;;;;;;;5.22;3.75;;;;;;;8.31;100.00;100378.88;6374256;27;20047;-78
2022/12/30 13:12:08;;;;;;;5.93;3.70;;;;;;;8.33;100.00;100382.25;6375633;27;20130;-78
2022/12/30 13:15:34;;;;;;;14.18;5.18;;;;;;;8.43;100.00;100383.53;6357021;27;20491;-78
2022/12/30 13:18:41;;;;;;;7.55;4.15;;;;;;;8.44;100.00;100391.28;6374290;27;20043;-78
2022/12/30 13:21:44;;;;;;;6.05;4.28;;;;;;;8.31;100.00;100374.53;6374398;27;20050;-78
2022/12/30 13:24:53;;;;;;;7.60;4.10;;;;;;;8.44;100.00;100380.00;6374180;27;20118;-78
2022/12/30 13:27:56;;;;;;;9.18;5.55;;;;;;;8.40;100.00;100384.50;6375135;27;20043;-78
2022/12/30 13:31:16;;;;;;;10.02;4.72;;;;;;;8.38;100.00;100377.66;6375163;27;20122;-78
2022/12/30 13:34:23;;;;;;;9.00;5.30;;;;;;;8.34;100.00;100387.41;6374920;27;20063;-78
2022/12/30 13:37:44;;;;;;;9.77;4.68;;;;;;;8.39;100.00;100382.81;6375042;27;20039;-78
2022/12/30 13:41:05;;;;;;;9.32;4.95;;;;;;;8.38;100.00;100388.06;6373042;27;20054;-78
2022/12/30 13:44:20;;;;;;;5.20;4.00;;;;;;;8.31;100.00;100397.09;6373669;27;20065;-78
2022/12/30 13:47:33;;;;;;;9.10;5.32;;;;;;;8.32;100.00;100396.16;6373588;27;20080;-77
2022/12/30 13:50:35;;;;;;;6.72;3.95;;;;;;;8.32;100.00;100396.16;6372041;27;20057;-78
2022/12/30 13:53:40;;;;;;;7.25;3.85;;;;;;;8.31;100.00;100394.47;6372611;27;20511;-78
2022/12/30 13:56:52;;;;;;;8.10;4.60;;;;;;;8.31;100.00;100395.31;6352779;27;20046;-78
2022/12/30 14:00:09;;;;;;;40.55;14.70;;;;;;;8.31;100.00;100389.28;6371992;27;20043;-77
2022/12/30 14:03:22;;;;;;;64.57;22.23;;;;;;;8.27;100.00;100393.78;6370110;27;20108;-78
2022/12/30 14:06:42;;;;;;;19.08;9.77;;;;;;;8.19;100.00;100385.47;6373034;27;20050;-78
2022/12/30 14:10:14;;;;;;;12.73;5.70;;;;;;;8.13;100.00;100388.38;6372825;27;20035;-78
2022/12/30 14:13:31;;;;;;;15.65;6.47;;;;;;;8.08;100.00;100392.00;6352806;27;20504;-77
2022/12/30 14:16:38;;;;;;;9.48;4.72;;;;;;;8.20;100.00;100406.22;6355792;27;20077;-79
2022/12/30 14:19:57;;;;;;;10.52;5.25;;;;;;;8.19;100.00;100407.13;6370557;27;20043;-79
2022/12/30 14:23:03;;;;;;;9.65;5.00;;;;;;;8.17;100.00;100416.75;6371929;27;20042;-76
2022/12/30 14:26:19;;;;;;;12.45;6.15;;;;;;;8.15;100.00;100410.75;6372333;27;20462;-78
2022/12/30 14:29:33;;;;;;;17.45;8.07;;;;;;;8.21;100.00;100413.09;6372864;27;20130;-77
2022/12/30 14:32:34;;;;;;;14.35;6.63;;;;;;;8.24;100.00;100409.53;6372092;27;20121;-78
2022/12/30 14:35:47;;;;;;;18.67;8.48;;;;;;;8.24;100.00;100417.31;6355183;27;20057;-77
2022/12/30 14:38:50;;;;;;;16.38;8.10;;;;;;;8.22;100.00;100409.59;6372330;27;20114;-79
2022/12/30 14:41:52;;;;;;;14.63;8.85;;;;;;;8.16;100.00;100398.63;6372294;27;20078;-81
2022/12/30 14:44:59;;;;;;;14.98;8.30;;;;;;;8.12;100.00;100400.53;6373648;27;20715;-77
2022/12/30 14:48:00;;;;;;;14.80;6.53;;;;;;;8.02;100.00;100410.47;6374059;27;20035;-79
2022/12/30 14:51:01;;;;;;;15.27;5.93;;;;;;;8.01;100.00;100420.94;6374316;27;20046;-76
2022/12/30 14:54:04;;;;;;;14.13;8.00;;;;;;;7.98;100.00;100429.72;6373365;27;20039;-76
2022/12/30 14:57:17;;;;;;;11.75;6.20;;;;;;;8.04;100.00;100452.00;6371568;27;20482;-77
2022/12/30 15:00:20;;;;;;;10.60;5.35;;;;;;;8.04;100.00;100450.25;6373606;27;20039;-78
2022/12/30 15:03:22;;;;;;;15.10;8.43;;;;;;;8.06;100.00;100448.41;6373478;27;20719;-78
2022/12/30 15:06:23;;;;;;;;;;;;;;;8.11;100.00;100442.16;6373720;27;20049;-77
2022/12/30 15:09:26;;;;;;;9.18;6.15;;;;;;;8.11;100.00;100436.97;6356426;27;19919;-77
2022/12/30 15:12:27;;;;;;;11.27;6.05;;;;;;;8.15;100.00;100444.56;6364727;27;20112;-77
2022/12/30 15:15:28;;;;;;;14.35;6.35;;;;;;;8.10;100.00;100441.34;6374524;27;20038;-78
2022/12/30 15:18:38;;;;;;;22.20;9.43;;;;;;;8.15;100.00;100451.53;6374570;27;20039;-77
2022/12/30 15:21:46;;;;;;;18.05;9.68;;;;;;;8.05;100.00;100456.28;6373727;27;20115;-76
2022/12/30 15:24:46;;;;;;;18.02;7.88;;;;;;;7.96;100.00;100457.53;6373489;27;20039;-78
2022/12/30 15:27:57;;;;;;;20.85;9.25;;;;;;;7.87;100.00;100455.34;6373905;27;20095;-78
2022/12/30 15:30:59;;;;;;;15.25;8.10;;;;;;;7.80;100.00;100461.69;6371699;27;20122;-78